sensor_id;sensor_type;location;lat;lon;timestamp;P1;durP1;ratioP1;P2;durP2;ratioP2
8480;SDS011;4277;51.354;6.740;2022-09-03T00:00:40;1.40;;;1.30;;
8480;SDS011;4277;51.354;6.740;2022-09-03T00:05:38;2.78;;;1.50;;
8480;SDS011;4277;51.354;6.740;2022-09-03T00:08:08;3.42;;;1.40;;
8480;SDS011;4277;51.354;6.740;2022-09-03T00:10:51;1.85;;;1.50;;
8480;SDS011;4277;51.354;6.740;2022-09-03T00:13:20;1.60;;;1.20;;
8480;SDS011;4277;51.354;6.740;2022-09-03T00:15:47;4.63;;;1.50;;
8480;SDS011;4277;51.354;6.740;2022-09-03T00:18:15;3.80;;;1.30;;
8480;SDS011;4277;51.354;6.740;2022-09-03T00:20:44;2.33;;;1.40;;
8480;SDS011;4277;51.354;6.740;2022-09-03T00:23:19;1.60;;;1.50;;
8480;SDS011;4277;51.354;6.740;2022-09-03T00:25:48;1.92;;;1.40;;
8480;SDS011;4277;51.354;6.740;2022-09-03T00:28:19;1.37;;;1.27;;
8480;SDS011;4277;51.354;6.740;2022-09-03T00:30:49;2.60;;;1.30;;
8480;SDS011;4277;51.354;6.740;2022-09-03T00:33:21;2.88;;;1.27;;
8480;SDS011;4277;51.354;6.740;2022-09-03T00:35:51;1.40;;;1.30;;
8480;SDS011;4277;51.354;6.740;2022-09-03T00:38:19;1.27;;;1.17;;
8480;SDS011;4277;51.354;6.740;2022-09-03T00:48:31;2.50;;;1.50;;
8480;SDS011;4277;51.354;6.740;2022-09-03T00:53:59;5.07;;;1.30;;
8480;SDS011;4277;51.354;6.740;2022-09-03T00:56:41;2.08;;;1.30;;
8480;SDS011;4277;51.354;6.740;2022-09-03T00:59:20;2.67;;;1.43;;
8480;SDS011;4277;51.354;6.740;2022-09-03T01:12:12;1.40;;;1.13;;
8480;SDS011;4277;51.354;6.740;2022-09-03T01:14:45;1.73;;;1.40;;
8480;SDS011;4277;51.354;6.740;2022-09-03T01:17:22;2.03;;;1.33;;
8480;SDS011;4277;51.354;6.740;2022-09-03T01:37:36;4.20;;;1.40;;
8480;SDS011;4277;51.354;6.740;2022-09-03T01:40:16;2.87;;;1.50;;
8480;SDS011;4277;51.354;6.740;2022-09-03T01:56:11;1.70;;;1.60;;
8480;SDS011;4277;51.354;6.740;2022-09-03T01:58:46;1.97;;;1.50;;
8480;SDS011;4277;51.354;6.740;2022-09-03T02:01:25;4.00;;;1.80;;
8480;SDS011;4277;51.354;6.740;2022-09-03T02:03:54;2.63;;;1.60;;
8480;SDS011;4277;51.354;6.740;2022-09-03T02:06:24;3.33;;;1.67;;
8480;SDS011;4277;51.354;6.740;2022-09-03T02:08:51;2.33;;;1.60;;
8480;SDS011;4277;51.354;6.740;2022-09-03T02:11:17;3.07;;;1.60;;
8480;SDS011;4277;51.354;6.740;2022-09-03T02:13:44;2.57;;;1.50;;
8480;SDS011;4277;51.354;6.740;2022-09-03T02:16:19;2.13;;;1.50;;
8480;SDS011;4277;51.354;6.740;2022-09-03T02:18:47;4.80;;;1.50;;
8480;SDS011;4277;51.354;6.740;2022-09-03T02:21:15;4.97;;;1.50;;
8480;SDS011;4277;51.354;6.740;2022-09-03T02:23:41;2.87;;;1.40;;
8480;SDS011;4277;51.354;6.740;2022-09-03T02:26:08;4.00;;;1.63;;
8480;SDS011;4277;51.354;6.740;2022-09-03T02:28:34;1.63;;;1.53;;
8480;SDS011;4277;51.354;6.740;2022-09-03T02:31:00;2.43;;;1.70;;
8480;SDS011;4277;51.354;6.740;2022-09-03T02:33:27;2.13;;;1.53;;
8480;SDS011;4277;51.354;6.740;2022-09-03T02:35:53;3.73;;;1.50;;
8480;SDS011;4277;51.354;6.740;2022-09-03T02:38:20;2.40;;;1.67;;
8480;SDS011;4277;51.354;6.740;2022-09-03T02:40:47;2.70;;;1.60;;
8480;SDS011;4277;51.354;6.740;2022-09-03T02:43:18;1.60;;;1.40;;
8480;SDS011;4277;51.354;6.740;2022-09-03T02:45:46;1.77;;;1.50;;
8480;SDS011;4277;51.354;6.740;2022-09-03T02:48:14;6.07;;;1.60;;
8480;SDS011;4277;51.354;6.740;2022-09-03T02:50:41;2.70;;;1.43;;
8480;SDS011;4277;51.354;6.740;2022-09-03T02:53:08;2.13;;;1.50;;
8480;SDS011;4277;51.354;6.740;2022-09-03T02:55:34;1.77;;;1.30;;
8480;SDS011;4277;51.354;6.740;2022-09-03T02:58:00;2.83;;;1.37;;
8480;SDS011;4277;51.354;6.740;2022-09-03T03:00:26;2.67;;;1.30;;
8480;SDS011;4277;51.354;6.740;2022-09-03T03:02:54;3.70;;;1.60;;
8480;SDS011;4277;51.354;6.740;2022-09-03T03:08:04;1.20;;;1.10;;
8480;SDS011;4277;51.354;6.740;2022-09-03T03:10:30;1.40;;;1.27;;
8480;SDS011;4277;51.354;6.740;2022-09-03T03:12:56;2.37;;;1.37;;
8480;SDS011;4277;51.354;6.740;2022-09-03T03:15:22;1.97;;;1.40;;
8480;SDS011;4277;51.354;6.740;2022-09-03T03:17:48;2.30;;;1.30;;
8480;SDS011;4277;51.354;6.740;2022-09-03T03:20:14;2.13;;;1.40;;
8480;SDS011;4277;51.354;6.740;2022-09-03T03:22:40;1.57;;;1.40;;
8480;SDS011;4277;51.354;6.740;2022-09-03T03:25:06;1.30;;;1.20;;
8480;SDS011;4277;51.354;6.740;2022-09-03T03:27:33;2.23;;;1.47;;
8480;SDS011;4277;51.354;6.740;2022-09-03T03:30:05;1.40;;;1.30;;
8480;SDS011;4277;51.354;6.740;2022-09-03T03:32:33;3.77;;;1.40;;
8480;SDS011;4277;51.354;6.740;2022-09-03T03:34:59;4.00;;;1.30;;
8480;SDS011;4277;51.354;6.740;2022-09-03T03:37:25;3.10;;;1.30;;
8480;SDS011;4277;51.354;6.740;2022-09-03T03:39:51;2.50;;;1.40;;
8480;SDS011;4277;51.354;6.740;2022-09-03T03:42:17;2.47;;;1.37;;
8480;SDS011;4277;51.354;6.740;2022-09-03T03:44:43;1.63;;;1.37;;
8480;SDS011;4277;51.354;6.740;2022-09-03T03:47:09;2.60;;;1.40;;
8480;SDS011;4277;51.354;6.740;2022-09-03T03:49:36;3.03;;;1.43;;
8480;SDS011;4277;51.354;6.740;2022-09-03T03:52:02;6.30;;;1.70;;
8480;SDS011;4277;51.354;6.740;2022-09-03T03:54:29;2.50;;;1.40;;
8480;SDS011;4277;51.354;6.740;2022-09-03T03:56:55;1.50;;;1.40;;
8480;SDS011;4277;51.354;6.740;2022-09-03T03:59:21;2.87;;;1.40;;
8480;SDS011;4277;51.354;6.740;2022-09-03T04:01:47;1.37;;;1.27;;
8480;SDS011;4277;51.354;6.740;2022-09-03T04:04:14;3.53;;;1.40;;
8480;SDS011;4277;51.354;6.740;2022-09-03T04:06:40;3.00;;;1.23;;
8480;SDS011;4277;51.354;6.740;2022-09-03T04:09:06;2.40;;;1.40;;
8480;SDS011;4277;51.354;6.740;2022-09-03T04:11:32;2.20;;;1.50;;
8480;SDS011;4277;51.354;6.740;2022-09-03T04:13:58;3.13;;;1.47;;
8480;SDS011;4277;51.354;6.740;2022-09-03T04:16:25;3.00;;;1.60;;
8480;SDS011;4277;51.354;6.740;2022-09-03T04:18:55;3.80;;;1.63;;
8480;SDS011;4277;51.354;6.740;2022-09-03T04:21:22;1.90;;;1.43;;
8480;SDS011;4277;51.354;6.740;2022-09-03T04:23:48;3.10;;;1.50;;
8480;SDS011;4277;51.354;6.740;2022-09-03T04:26:16;2.13;;;1.67;;
8480;SDS011;4277;51.354;6.740;2022-09-03T04:28:42;1.63;;;1.53;;
8480;SDS011;4277;51.354;6.740;2022-09-03T04:31:09;1.60;;;1.50;;
8480;SDS011;4277;51.354;6.740;2022-09-03T04:33:36;3.33;;;1.50;;
8480;SDS011;4277;51.354;6.740;2022-09-03T04:38:29;2.23;;;1.40;;
8480;SDS011;4277;51.354;6.740;2022-09-03T04:40:56;2.10;;;1.30;;
8480;SDS011;4277;51.354;6.740;2022-09-03T04:43:23;2.87;;;1.30;;
8480;SDS011;4277;51.354;6.740;2022-09-03T04:45:49;3.00;;;1.70;;
8480;SDS011;4277;51.354;6.740;2022-09-03T04:48:15;3.87;;;1.47;;
8480;SDS011;4277;51.354;6.740;2022-09-03T04:50:41;2.23;;;1.50;;
8480;SDS011;4277;51.354;6.740;2022-09-03T04:53:07;2.93;;;1.50;;
8480;SDS011;4277;51.354;6.740;2022-09-03T04:55:34;2.03;;;1.60;;
8480;SDS011;4277;51.354;6.740;2022-09-03T04:58:00;2.10;;;1.40;;
8480;SDS011;4277;51.354;6.740;2022-09-03T05:00:26;2.17;;;1.50;;
8480;SDS011;4277;51.354;6.740;2022-09-03T05:02:52;1.80;;;1.60;;
8480;SDS011;4277;51.354;6.740;2022-09-03T05:05:18;4.90;;;1.40;;
8480;SDS011;4277;51.354;6.740;2022-09-03T05:07:44;5.57;;;1.67;;
8480;SDS011;4277;51.354;6.740;2022-09-03T05:10:11;3.23;;;1.70;;
8480;SDS011;4277;51.354;6.740;2022-09-03T05:12:44;3.10;;;1.77;;
8480;SDS011;4277;51.354;6.740;2022-09-03T05:15:10;6.13;;;1.60;;
8480;SDS011;4277;51.354;6.740;2022-09-03T05:17:36;3.40;;;1.70;;
8480;SDS011;4277;51.354;6.740;2022-09-03T05:20:03;2.50;;;1.63;;
8480;SDS011;4277;51.354;6.740;2022-09-03T05:22:29;2.13;;;1.50;;
8480;SDS011;4277;51.354;6.740;2022-09-03T05:24:55;2.40;;;1.50;;
8480;SDS011;4277;51.354;6.740;2022-09-03T05:27:21;1.70;;;1.60;;
8480;SDS011;4277;51.354;6.740;2022-09-03T05:29:47;3.77;;;1.77;;
8480;SDS011;4277;51.354;6.740;2022-09-03T05:32:13;2.97;;;1.70;;
8480;SDS011;4277;51.354;6.740;2022-09-03T05:34:41;2.07;;;1.50;;
8480;SDS011;4277;51.354;6.740;2022-09-03T05:37:07;1.93;;;1.50;;
8480;SDS011;4277;51.354;6.740;2022-09-03T05:39:33;2.50;;;1.70;;
8480;SDS011;4277;51.354;6.740;2022-09-03T05:41:59;1.77;;;1.60;;
8480;SDS011;4277;51.354;6.740;2022-09-03T05:44:25;3.10;;;1.60;;
8480;SDS011;4277;51.354;6.740;2022-09-03T05:46:51;1.70;;;1.60;;
8480;SDS011;4277;51.354;6.740;2022-09-03T05:49:17;3.43;;;1.80;;
8480;SDS011;4277;51.354;6.740;2022-09-03T05:51:43;3.50;;;1.63;;
8480;SDS011;4277;51.354;6.740;2022-09-03T05:54:10;2.00;;;1.63;;
8480;SDS011;4277;51.354;6.740;2022-09-03T05:56:37;2.70;;;1.80;;
8480;SDS011;4277;51.354;6.740;2022-09-03T05:59:04;4.70;;;1.63;;
8480;SDS011;4277;51.354;6.740;2022-09-03T06:01:32;2.60;;;1.60;;
8480;SDS011;4277;51.354;6.740;2022-09-03T06:03:59;2.47;;;1.57;;
8480;SDS011;4277;51.354;6.740;2022-09-03T06:06:26;1.93;;;1.63;;
8480;SDS011;4277;51.354;6.740;2022-09-03T06:08:56;2.97;;;1.70;;
8480;SDS011;4277;51.354;6.740;2022-09-03T06:11:22;5.07;;;1.77;;
8480;SDS011;4277;51.354;6.740;2022-09-03T06:13:51;2.87;;;1.50;;
8480;SDS011;4277;51.354;6.740;2022-09-03T06:16:17;1.83;;;1.60;;
8480;SDS011;4277;51.354;6.740;2022-09-03T06:18:43;2.53;;;1.70;;
8480;SDS011;4277;51.354;6.740;2022-09-03T06:21:09;3.70;;;1.70;;
8480;SDS011;4277;51.354;6.740;2022-09-03T06:23:35;2.17;;;1.80;;
8480;SDS011;4277;51.354;6.740;2022-09-03T06:26:02;4.27;;;1.47;;
8480;SDS011;4277;51.354;6.740;2022-09-03T06:28:29;2.73;;;1.53;;
8480;SDS011;4277;51.354;6.740;2022-09-03T06:30:57;2.73;;;1.67;;
8480;SDS011;4277;51.354;6.740;2022-09-03T06:33:23;5.03;;;1.50;;
8480;SDS011;4277;51.354;6.740;2022-09-03T06:35:51;3.40;;;1.40;;
8480;SDS011;4277;51.354;6.740;2022-09-03T06:38:22;4.97;;;1.67;;
8480;SDS011;4277;51.354;6.740;2022-09-03T06:40:55;2.10;;;1.10;;
8480;SDS011;4277;51.354;6.740;2022-09-03T06:43:22;5.63;;;1.20;;
8480;SDS011;4277;51.354;6.740;2022-09-03T06:45:55;3.27;;;1.20;;
8480;SDS011;4277;51.354;6.740;2022-09-03T06:48:21;2.80;;;1.33;;
8480;SDS011;4277;51.354;6.740;2022-09-03T06:51:03;1.40;;;1.27;;
8480;SDS011;4277;51.354;6.740;2022-09-03T06:53:32;1.95;;;1.20;;
8480;SDS011;4277;51.354;6.740;2022-09-03T06:56:00;3.13;;;1.30;;
8480;SDS011;4277;51.354;6.740;2022-09-03T06:58:32;1.63;;;0.90;;
8480;SDS011;4277;51.354;6.740;2022-09-03T07:01:06;1.75;;;1.20;;
8480;SDS011;4277;51.354;6.740;2022-09-03T07:03:33;1.85;;;1.17;;
8480;SDS011;4277;51.354;6.740;2022-09-03T07:06:00;2.83;;;1.02;;
8480;SDS011;4277;51.354;6.740;2022-09-03T07:08:30;3.80;;;1.10;;
8480;SDS011;4277;51.354;6.740;2022-09-03T07:11:00;2.08;;;1.00;;
8480;SDS011;4277;51.354;6.740;2022-09-03T07:13:33;3.05;;;1.00;;
8480;SDS011;4277;51.354;6.740;2022-09-03T07:18:33;1.00;;;0.90;;
8480;SDS011;4277;51.354;6.740;2022-09-03T07:20:59;1.50;;;1.05;;
8480;SDS011;4277;51.354;6.740;2022-09-03T07:23:26;1.83;;;0.98;;
8480;SDS011;4277;51.354;6.740;2022-09-03T07:25:57;2.42;;;0.90;;
8480;SDS011;4277;51.354;6.740;2022-09-03T07:28:24;1.80;;;0.90;;
8480;SDS011;4277;51.354;6.740;2022-09-03T07:30:51;3.50;;;1.20;;
8480;SDS011;4277;51.354;6.740;2022-09-03T07:33:17;7.43;;;1.08;;
8480;SDS011;4277;51.354;6.740;2022-09-03T07:35:45;3.85;;;0.98;;
8480;SDS011;4277;51.354;6.740;2022-09-03T07:38:15;1.00;;;0.90;;
8480;SDS011;4277;51.354;6.740;2022-09-03T07:40:41;3.83;;;1.20;;
8480;SDS011;4277;51.354;6.740;2022-09-03T07:43:07;1.75;;;1.10;;
8480;SDS011;4277;51.354;6.740;2022-09-03T07:45:34;5.90;;;1.00;;
8480;SDS011;4277;51.354;6.740;2022-09-03T07:48:01;1.35;;;1.08;;
8480;SDS011;4277;51.354;6.740;2022-09-03T07:50:27;2.47;;;1.02;;
8480;SDS011;4277;51.354;6.740;2022-09-03T07:52:56;2.25;;;1.30;;
8480;SDS011;4277;51.354;6.740;2022-09-03T07:55:23;1.50;;;1.00;;
8480;SDS011;4277;51.354;6.740;2022-09-03T07:57:54;4.07;;;1.40;;
8480;SDS011;4277;51.354;6.740;2022-09-03T08:00:20;3.67;;;1.60;;
8480;SDS011;4277;51.354;6.740;2022-09-03T08:02:46;2.80;;;1.10;;
8480;SDS011;4277;51.354;6.740;2022-09-03T08:05:12;2.55;;;1.30;;
8480;SDS011;4277;51.354;6.740;2022-09-03T08:07:38;3.55;;;1.40;;
8480;SDS011;4277;51.354;6.740;2022-09-03T08:10:04;1.02;;;0.90;;
8480;SDS011;4277;51.354;6.740;2022-09-03T08:12:30;0.85;;;0.85;;
8480;SDS011;4277;51.354;6.740;2022-09-03T08:14:56;2.75;;;1.15;;
8480;SDS011;4277;51.354;6.740;2022-09-03T08:17:22;1.20;;;1.10;;
8480;SDS011;4277;51.354;6.740;2022-09-03T08:19:49;1.13;;;0.98;;
8480;SDS011;4277;51.354;6.740;2022-09-03T08:22:15;2.03;;;1.30;;
8480;SDS011;4277;51.354;6.740;2022-09-03T08:24:41;3.10;;;1.23;;
8480;SDS011;4277;51.354;6.740;2022-09-03T08:27:07;1.48;;;1.08;;
8480;SDS011;4277;51.354;6.740;2022-09-03T08:29:33;3.28;;;1.10;;
8480;SDS011;4277;51.354;6.740;2022-09-03T08:31:59;2.63;;;0.90;;
8480;SDS011;4277;51.354;6.740;2022-09-03T08:34:25;2.03;;;1.10;;
8480;SDS011;4277;51.354;6.740;2022-09-03T08:36:51;2.17;;;1.08;;
8480;SDS011;4277;51.354;6.740;2022-09-03T08:39:18;1.30;;;1.00;;
8480;SDS011;4277;51.354;6.740;2022-09-03T08:46:59;4.50;;;1.23;;
8480;SDS011;4277;51.354;6.740;2022-09-03T08:52:21;2.45;;;1.00;;
8480;SDS011;4277;51.354;6.740;2022-09-03T08:54:50;1.08;;;0.98;;
8480;SDS011;4277;51.354;6.740;2022-09-03T08:57:18;1.85;;;1.30;;
8480;SDS011;4277;51.354;6.740;2022-09-03T08:59:45;3.70;;;1.20;;
8480;SDS011;4277;51.354;6.740;2022-09-03T09:07:26;2.22;;;1.30;;
8480;SDS011;4277;51.354;6.740;2022-09-03T09:10:02;4.05;;;1.20;;
8480;SDS011;4277;51.354;6.740;2022-09-03T09:15:29;1.13;;;1.10;;
8480;SDS011;4277;51.354;6.740;2022-09-03T09:18:06;0.95;;;0.90;;
8480;SDS011;4277;51.354;6.740;2022-09-03T09:23:04;2.20;;;1.20;;
8480;SDS011;4277;51.354;6.740;2022-09-03T09:25:33;2.35;;;1.05;;
8480;SDS011;4277;51.354;6.740;2022-09-03T09:28:16;3.08;;;1.10;;
8480;SDS011;4277;51.354;6.740;2022-09-03T09:30:43;4.20;;;1.30;;
8480;SDS011;4277;51.354;6.740;2022-09-03T09:33:11;4.38;;;1.25;;
8480;SDS011;4277;51.354;6.740;2022-09-03T09:35:37;3.63;;;1.40;;
8480;SDS011;4277;51.354;6.740;2022-09-03T09:38:06;4.22;;;1.35;;
8480;SDS011;4277;51.354;6.740;2022-09-03T09:40:36;2.47;;;1.25;;
8480;SDS011;4277;51.354;6.740;2022-09-03T09:43:03;2.63;;;1.20;;
8480;SDS011;4277;51.354;6.740;2022-09-03T09:45:30;1.08;;;0.90;;
8480;SDS011;4277;51.354;6.740;2022-09-03T09:47:58;5.85;;;1.33;;
8480;SDS011;4277;51.354;6.740;2022-09-03T09:50:24;2.03;;;1.10;;
8480;SDS011;4277;51.354;6.740;2022-09-03T09:53:00;1.88;;;1.30;;
8480;SDS011;4277;51.354;6.740;2022-09-03T09:55:29;2.67;;;1.23;;
8480;SDS011;4277;51.354;6.740;2022-09-03T09:58:06;6.20;;;1.20;;
8480;SDS011;4277;51.354;6.740;2022-09-03T10:00:39;1.63;;;1.27;;
8480;SDS011;4277;51.354;6.740;2022-09-03T10:03:09;3.75;;;1.35;;
8480;SDS011;4277;51.354;6.740;2022-09-03T10:05:37;3.33;;;1.40;;
8480;SDS011;4277;51.354;6.740;2022-09-03T10:08:17;2.47;;;1.20;;
8480;SDS011;4277;51.354;6.740;2022-09-03T10:10:46;3.00;;;1.30;;
8480;SDS011;4277;51.354;6.740;2022-09-03T10:13:58;1.58;;;1.10;;
8480;SDS011;4277;51.354;6.740;2022-09-03T10:16:12;2.72;;;1.38;;
8480;SDS011;4277;51.354;6.740;2022-09-03T10:18:49;1.55;;;1.33;;
8480;SDS011;4277;51.354;6.740;2022-09-03T10:24:37;2.60;;;1.42;;
8480;SDS011;4277;51.354;6.740;2022-09-03T10:27:22;3.00;;;1.33;;
8480;SDS011;4277;51.354;6.740;2022-09-03T10:29:49;1.60;;;1.30;;
8480;SDS011;4277;51.354;6.740;2022-09-03T10:37:54;3.17;;;1.15;;
8480;SDS011;4277;51.354;6.740;2022-09-03T10:40:49;1.33;;;1.23;;
8480;SDS011;4277;51.354;6.740;2022-09-03T10:46:27;2.15;;;1.30;;
8480;SDS011;4277;51.354;6.740;2022-09-03T10:52:02;2.10;;;1.50;;
8480;SDS011;4277;51.354;6.740;2022-09-03T11:00:08;3.92;;;1.33;;
8480;SDS011;4277;51.354;6.740;2022-09-03T11:08:11;4.63;;;1.80;;
8480;SDS011;4277;51.354;6.740;2022-09-03T11:10:53;2.40;;;1.50;;
8480;SDS011;4277;51.354;6.740;2022-09-03T11:16:16;1.60;;;1.50;;
8480;SDS011;4277;51.354;6.740;2022-09-03T11:18:50;1.60;;;1.50;;
8480;SDS011;4277;51.354;6.740;2022-09-03T11:21:23;1.40;;;1.30;;
8480;SDS011;4277;51.354;6.740;2022-09-03T11:23:51;2.78;;;1.60;;
8480;SDS011;4277;51.354;6.740;2022-09-03T11:26:28;2.08;;;1.50;;
8480;SDS011;4277;51.354;6.740;2022-09-03T11:29:03;1.63;;;1.40;;
8480;SDS011;4277;51.354;6.740;2022-09-03T11:34:27;2.25;;;1.50;;
8480;SDS011;4277;51.354;6.740;2022-09-03T11:42:29;3.17;;;1.88;;
8480;SDS011;4277;51.354;6.740;2022-09-03T11:47:54;4.57;;;1.70;;
8480;SDS011;4277;51.354;6.740;2022-09-03T11:52:51;2.90;;;1.70;;
8480;SDS011;4277;51.354;6.740;2022-09-03T11:55:28;2.80;;;1.52;;
8480;SDS011;4277;51.354;6.740;2022-09-03T11:58:16;1.30;;;1.30;;
8480;SDS011;4277;51.354;6.740;2022-09-03T12:00:48;2.22;;;1.50;;
8480;SDS011;4277;51.354;6.740;2022-09-03T12:03:20;2.33;;;1.30;;
8480;SDS011;4277;51.354;6.740;2022-09-03T12:08:45;2.25;;;1.50;;
8480;SDS011;4277;51.354;6.740;2022-09-03T12:11:56;2.92;;;1.63;;
8480;SDS011;4277;51.354;6.740;2022-09-03T12:14:22;1.60;;;1.50;;
8480;SDS011;4277;51.354;6.740;2022-09-03T12:17:10;1.30;;;1.30;;
8480;SDS011;4277;51.354;6.740;2022-09-03T12:19:53;2.80;;;1.52;;
8480;SDS011;4277;51.354;6.740;2022-09-03T12:22:21;2.25;;;1.40;;
8480;SDS011;4277;51.354;6.740;2022-09-03T12:24:48;3.22;;;1.50;;
8480;SDS011;4277;51.354;6.740;2022-09-03T12:27:22;1.70;;;1.60;;
8480;SDS011;4277;51.354;6.740;2022-09-03T12:29:56;1.40;;;1.30;;
8480;SDS011;4277;51.354;6.740;2022-09-03T12:32:28;1.60;;;1.50;;
8480;SDS011;4277;51.354;6.740;2022-09-03T12:35:20;2.33;;;1.60;;
8480;SDS011;4277;51.354;6.740;2022-09-03T12:37:50;2.13;;;1.40;;
8480;SDS011;4277;51.354;6.740;2022-09-03T12:40:20;3.33;;;1.63;;
8480;SDS011;4277;51.354;6.740;2022-09-03T12:42:48;1.83;;;1.65;;
8480;SDS011;4277;51.354;6.740;2022-09-03T12:45:17;2.53;;;1.45;;
8480;SDS011;4277;51.354;6.740;2022-09-03T12:47:44;5.38;;;1.50;;
8480;SDS011;4277;51.354;6.740;2022-09-03T12:50:11;1.40;;;1.30;;
8480;SDS011;4277;51.354;6.740;2022-09-03T12:52:49;4.55;;;1.83;;
8480;SDS011;4277;51.354;6.740;2022-09-03T12:58:01;1.80;;;1.63;;
8480;SDS011;4277;51.354;6.740;2022-09-03T13:00:37;2.15;;;1.77;;
8480;SDS011;4277;51.354;6.740;2022-09-03T13:03:16;1.73;;;1.63;;
8480;SDS011;4277;51.354;6.740;2022-09-03T13:05:53;3.40;;;1.80;;
8480;SDS011;4277;51.354;6.740;2022-09-03T13:08:25;1.65;;;1.55;;
8480;SDS011;4277;51.354;6.740;2022-09-03T13:10:54;1.70;;;1.60;;
8480;SDS011;4277;51.354;6.740;2022-09-03T13:13:23;2.00;;;1.90;;
8480;SDS011;4277;51.354;6.740;2022-09-03T13:16:10;4.97;;;2.00;;
8480;SDS011;4277;51.354;6.740;2022-09-03T13:21:48;2.25;;;1.90;;
8480;SDS011;4277;51.354;6.740;2022-09-03T13:24:33;2.47;;;1.90;;
8480;SDS011;4277;51.354;6.740;2022-09-03T13:30:20;4.82;;;1.73;;
8480;SDS011;4277;51.354;6.740;2022-09-03T13:32:58;1.98;;;1.77;;
8480;SDS011;4277;51.354;6.740;2022-09-03T13:35:35;2.35;;;1.80;;
8480;SDS011;4277;51.354;6.740;2022-09-03T13:40:58;3.90;;;2.20;;
8480;SDS011;4277;51.354;6.740;2022-09-03T13:43:33;2.00;;;1.90;;
8480;SDS011;4277;51.354;6.740;2022-09-03T13:46:16;2.33;;;1.67;;
8480;SDS011;4277;51.354;6.740;2022-09-03T13:48:48;3.05;;;1.83;;
8480;SDS011;4277;51.354;6.740;2022-09-03T13:51:50;2.70;;;1.75;;
8480;SDS011;4277;51.354;6.740;2022-09-03T13:54:34;3.45;;;2.08;;
8480;SDS011;4277;51.354;6.740;2022-09-03T13:59:44;1.95;;;1.80;;
8480;SDS011;4277;51.354;6.740;2022-09-03T14:10:34;3.20;;;1.85;;
8480;SDS011;4277;51.354;6.740;2022-09-03T14:25:36;2.95;;;1.80;;
8480;SDS011;4277;51.354;6.740;2022-09-03T14:28:14;2.15;;;1.95;;
8480;SDS011;4277;51.354;6.740;2022-09-03T14:30:52;2.10;;;1.90;;
8480;SDS011;4277;51.354;6.740;2022-09-03T14:33:34;2.03;;;1.90;;
8480;SDS011;4277;51.354;6.740;2022-09-03T14:47:18;3.38;;;1.80;;
8480;SDS011;4277;51.354;6.740;2022-09-03T15:02:03;2.00;;;1.80;;
8480;SDS011;4277;51.354;6.740;2022-09-03T15:07:13;3.10;;;2.05;;
8480;SDS011;4277;51.354;6.740;2022-09-03T15:15:19;1.80;;;1.70;;
8480;SDS011;4277;51.354;6.740;2022-09-03T15:24:07;2.05;;;1.70;;
8480;SDS011;4277;51.354;6.740;2022-09-03T15:29:25;3.95;;;1.70;;
8480;SDS011;4277;51.354;6.740;2022-09-03T15:37:10;1.88;;;1.77;;
8480;SDS011;4277;51.354;6.740;2022-09-03T15:42:49;1.98;;;1.88;;
8480;SDS011;4277;51.354;6.740;2022-09-03T15:48:06;2.22;;;1.58;;
8480;SDS011;4277;51.354;6.740;2022-09-03T16:05:02;2.42;;;1.60;;
8480;SDS011;4277;51.354;6.740;2022-09-03T16:07:09;2.47;;;1.70;;
8480;SDS011;4277;51.354;6.740;2022-09-03T16:12:46;2.88;;;1.88;;
8480;SDS011;4277;51.354;6.740;2022-09-03T16:15:35;1.60;;;1.50;;
8480;SDS011;4277;51.354;6.740;2022-09-03T16:21:01;2.25;;;1.98;;
8480;SDS011;4277;51.354;6.740;2022-09-03T16:26:02;2.00;;;1.90;;
8480;SDS011;4277;51.354;6.740;2022-09-03T16:28:35;2.17;;;1.80;;
8480;SDS011;4277;51.354;6.740;2022-09-03T16:31:13;2.00;;;1.80;;
8480;SDS011;4277;51.354;6.740;2022-09-03T16:34:04;2.75;;;1.90;;
8480;SDS011;4277;51.354;6.740;2022-09-03T16:36:43;2.88;;;1.80;;
8480;SDS011;4277;51.354;6.740;2022-09-03T16:42:13;3.13;;;2.00;;
8480;SDS011;4277;51.354;6.740;2022-09-03T16:47:26;1.65;;;1.55;;
8480;SDS011;4277;51.354;6.740;2022-09-03T16:53:05;1.98;;;1.75;;
8480;SDS011;4277;51.354;6.740;2022-09-03T16:58:37;1.85;;;1.75;;
8480;SDS011;4277;51.354;6.740;2022-09-03T17:06:15;2.17;;;1.52;;
8480;SDS011;4277;51.354;6.740;2022-09-03T17:11:40;1.70;;;1.60;;
8480;SDS011;4277;51.354;6.740;2022-09-03T17:14:38;2.38;;;1.77;;
8480;SDS011;4277;51.354;6.740;2022-09-03T17:23:04;1.95;;;1.70;;
8480;SDS011;4277;51.354;6.740;2022-09-03T17:28:25;4.63;;;2.20;;
8480;SDS011;4277;51.354;6.740;2022-09-03T17:34:10;2.38;;;1.95;;
8480;SDS011;4277;51.354;6.740;2022-09-03T17:39:51;2.90;;;1.70;;
8480;SDS011;4277;51.354;6.740;2022-09-03T17:45:40;1.75;;;1.60;;
8480;SDS011;4277;51.354;6.740;2022-09-03T17:50:50;1.92;;;1.58;;
8480;SDS011;4277;51.354;6.740;2022-09-03T17:56:22;1.73;;;1.63;;
8480;SDS011;4277;51.354;6.740;2022-09-03T17:58:54;1.80;;;1.70;;
8480;SDS011;4277;51.354;6.740;2022-09-03T18:01:36;4.35;;;1.67;;
8480;SDS011;4277;51.354;6.740;2022-09-03T18:07:11;2.33;;;1.90;;
8480;SDS011;4277;51.354;6.740;2022-09-03T18:15:20;1.80;;;1.70;;
8480;SDS011;4277;51.354;6.740;2022-09-03T18:18:29;2.72;;;1.90;;
8480;SDS011;4277;51.354;6.740;2022-09-03T18:20:57;2.05;;;1.90;;
8480;SDS011;4277;51.354;6.740;2022-09-03T18:27:20;2.20;;;2.00;;
8480;SDS011;4277;51.354;6.740;2022-09-03T18:30:11;4.20;;;3.80;;
8480;SDS011;4277;51.354;6.740;2022-09-03T18:32:58;4.80;;;3.78;;
8480;SDS011;4277;51.354;6.740;2022-09-03T18:35:43;3.75;;;3.25;;
8480;SDS011;4277;51.354;6.740;2022-09-03T18:38:29;3.38;;;2.75;;
8480;SDS011;4277;51.354;6.740;2022-09-03T18:47:31;2.10;;;2.00;;
8480;SDS011;4277;51.354;6.740;2022-09-03T18:50:30;2.13;;;1.90;;
8480;SDS011;4277;51.354;6.740;2022-09-03T18:53:24;2.85;;;2.15;;
8480;SDS011;4277;51.354;6.740;2022-09-03T18:56:19;1.83;;;1.73;;
8480;SDS011;4277;51.354;6.740;2022-09-03T19:02:01;2.13;;;1.90;;
8480;SDS011;4277;51.354;6.740;2022-09-03T19:05:09;3.10;;;1.92;;
8480;SDS011;4277;51.354;6.740;2022-09-03T19:08:03;1.90;;;1.80;;
8480;SDS011;4277;51.354;6.740;2022-09-03T19:11:00;1.80;;;1.70;;
8480;SDS011;4277;51.354;6.740;2022-09-03T19:13:49;4.10;;;1.70;;
8480;SDS011;4277;51.354;6.740;2022-09-03T19:23:01;2.47;;;2.28;;
8480;SDS011;4277;51.354;6.740;2022-09-03T19:25:45;1.80;;;1.70;;
8480;SDS011;4277;51.354;6.740;2022-09-03T19:28:31;2.03;;;1.75;;
8480;SDS011;4277;51.354;6.740;2022-09-03T19:34:34;2.35;;;1.70;;
8480;SDS011;4277;51.354;6.740;2022-09-03T19:40:31;1.83;;;1.73;;
8480;SDS011;4277;51.354;6.740;2022-09-03T19:46:16;1.70;;;1.60;;
8480;SDS011;4277;51.354;6.740;2022-09-03T19:49:06;1.65;;;1.55;;
8480;SDS011;4277;51.354;6.740;2022-09-03T19:54:37;1.85;;;1.75;;
8480;SDS011;4277;51.354;6.740;2022-09-03T19:57:22;1.90;;;1.80;;
8480;SDS011;4277;51.354;6.740;2022-09-03T20:00:08;2.67;;;1.88;;
8480;SDS011;4277;51.354;6.740;2022-09-03T20:02:53;1.77;;;1.67;;
8480;SDS011;4277;51.354;6.740;2022-09-03T20:05:38;4.68;;;1.60;;
8480;SDS011;4277;51.354;6.740;2022-09-03T20:08:23;1.65;;;1.55;;
8480;SDS011;4277;51.354;6.740;2022-09-03T20:11:10;1.70;;;1.60;;
8480;SDS011;4277;51.354;6.740;2022-09-03T20:13:41;1.65;;;1.55;;
8480;SDS011;4277;51.354;6.740;2022-09-03T20:24:20;1.60;;;1.50;;
8480;SDS011;4277;51.354;6.740;2022-09-03T20:26:54;1.70;;;1.60;;
8480;SDS011;4277;51.354;6.740;2022-09-03T20:29:29;2.05;;;1.70;;
8480;SDS011;4277;51.354;6.740;2022-09-03T20:32:40;1.67;;;1.58;;
8480;SDS011;4277;51.354;6.740;2022-09-03T20:37:27;3.80;;;1.70;;
8480;SDS011;4277;51.354;6.740;2022-09-03T20:42:51;2.47;;;1.80;;
8480;SDS011;4277;51.354;6.740;2022-09-03T20:51:15;2.70;;;1.70;;
8480;SDS011;4277;51.354;6.740;2022-09-03T20:54:01;1.92;;;1.58;;
8480;SDS011;4277;51.354;6.740;2022-09-03T21:05:31;1.77;;;1.67;;
8480;SDS011;4277;51.354;6.740;2022-09-03T21:21:02;2.38;;;1.80;;
8480;SDS011;4277;51.354;6.740;2022-09-03T21:28:33;2.05;;;1.77;;
8480;SDS011;4277;51.354;6.740;2022-09-03T21:31:04;2.03;;;1.70;;
8480;SDS011;4277;51.354;6.740;2022-09-03T21:33:33;2.00;;;1.80;;
8480;SDS011;4277;51.354;6.740;2022-09-03T21:36:12;1.95;;;1.80;;
8480;SDS011;4277;51.354;6.740;2022-09-03T21:38:39;1.80;;;1.70;;
8480;SDS011;4277;51.354;6.740;2022-09-03T21:46:24;2.03;;;1.85;;
8480;SDS011;4277;51.354;6.740;2022-09-03T21:48:55;1.88;;;1.60;;
8480;SDS011;4277;51.354;6.740;2022-09-03T22:01:31;1.80;;;1.70;;
8480;SDS011;4277;51.354;6.740;2022-09-03T22:04:00;1.98;;;1.77;;
8480;SDS011;4277;51.354;6.740;2022-09-03T22:07:10;1.80;;;1.70;;